sensor_id;sensor_type;location;lat;lon;timestamp;P1;durP1;ratioP1;P2;durP2;ratioP2
78783;SDS011;68127;51.050;14.084;2023-09-18T00:00:00;7.78;;;4.78;;
78783;SDS011;68127;51.050;14.084;2023-09-18T00:02:25;6.38;;;4.78;;
78783;SDS011;68127;51.050;14.084;2023-09-18T00:04:51;6.03;;;4.80;;
78783;SDS011;68127;51.050;14.084;2023-09-18T00:07:17;6.15;;;4.60;;
78783;SDS011;68127;51.050;14.084;2023-09-18T00:09:42;7.70;;;4.75;;
78783;SDS011;68127;51.050;14.084;2023-09-18T00:12:08;5.82;;;4.60;;
78783;SDS011;68127;51.050;14.084;2023-09-18T00:14:34;6.43;;;4.72;;
78783;SDS011;68127;51.050;14.084;2023-09-18T00:17:00;6.82;;;5.05;;
78783;SDS011;68127;51.050;14.084;2023-09-18T00:19:25;7.13;;;4.90;;
78783;SDS011;68127;51.050;14.084;2023-09-18T00:21:50;6.40;;;4.70;;
78783;SDS011;68127;51.050;14.084;2023-09-18T00:24:17;7.63;;;4.45;;
78783;SDS011;68127;51.050;14.084;2023-09-18T00:26:42;5.95;;;4.50;;
78783;SDS011;68127;51.050;14.084;2023-09-18T00:29:08;6.28;;;5.07;;
78783;SDS011;68127;51.050;14.084;2023-09-18T00:31:33;6.22;;;4.88;;
78783;SDS011;68127;51.050;14.084;2023-09-18T00:33:58;8.20;;;5.00;;
78783;SDS011;68127;51.050;14.084;2023-09-18T00:36:23;7.75;;;5.10;;
78783;SDS011;68127;51.050;14.084;2023-09-18T00:38:49;6.28;;;4.90;;
78783;SDS011;68127;51.050;14.084;2023-09-18T00:41:14;6.57;;;4.72;;
78783;SDS011;68127;51.050;14.084;2023-09-18T00:43:39;6.82;;;5.05;;
78783;SDS011;68127;51.050;14.084;2023-09-18T00:46:05;7.32;;;5.10;;
78783;SDS011;68127;51.050;14.084;2023-09-18T00:48:30;6.25;;;4.78;;
78783;SDS011;68127;51.050;14.084;2023-09-18T00:50:55;6.25;;;5.15;;
78783;SDS011;68127;51.050;14.084;2023-09-18T00:53:22;6.72;;;5.10;;
78783;SDS011;68127;51.050;14.084;2023-09-18T00:55:48;6.65;;;5.20;;
78783;SDS011;68127;51.050;14.084;2023-09-18T00:58:15;6.25;;;4.78;;
78783;SDS011;68127;51.050;14.084;2023-09-18T01:00:41;6.43;;;5.10;;
78783;SDS011;68127;51.050;14.084;2023-09-18T01:03:07;10.73;;;4.97;;
78783;SDS011;68127;51.050;14.084;2023-09-18T01:05:32;6.07;;;4.93;;
78783;SDS011;68127;51.050;14.084;2023-09-18T01:07:58;7.03;;;5.25;;
78783;SDS011;68127;51.050;14.084;2023-09-18T01:10:23;8.40;;;5.40;;
78783;SDS011;68127;51.050;14.084;2023-09-18T01:12:56;8.02;;;5.40;;
78783;SDS011;68127;51.050;14.084;2023-09-18T01:15:32;7.25;;;4.90;;
78783;SDS011;68127;51.050;14.084;2023-09-18T01:17:58;6.88;;;4.95;;
78783;SDS011;68127;51.050;14.084;2023-09-18T01:20:23;7.28;;;5.85;;
78783;SDS011;68127;51.050;14.084;2023-09-18T01:22:48;7.40;;;5.40;;
78783;SDS011;68127;51.050;14.084;2023-09-18T01:25:14;6.40;;;5.28;;
78783;SDS011;68127;51.050;14.084;2023-09-18T01:27:40;7.63;;;5.07;;
78783;SDS011;68127;51.050;14.084;2023-09-18T01:30:05;7.60;;;5.28;;
78783;SDS011;68127;51.050;14.084;2023-09-18T01:32:31;6.53;;;5.10;;
78783;SDS011;68127;51.050;14.084;2023-09-18T01:34:57;7.57;;;5.32;;
78783;SDS011;68127;51.050;14.084;2023-09-18T01:37:29;7.75;;;5.22;;
78783;SDS011;68127;51.050;14.084;2023-09-18T01:39:55;7.88;;;4.95;;
78783;SDS011;68127;51.050;14.084;2023-09-18T01:42:23;6.40;;;4.88;;
78783;SDS011;68127;51.050;14.084;2023-09-18T01:44:49;6.18;;;5.10;;
78783;SDS011;68127;51.050;14.084;2023-09-18T01:47:18;7.20;;;4.88;;
78783;SDS011;68127;51.050;14.084;2023-09-18T01:49:44;7.55;;;5.63;;
78783;SDS011;68127;51.050;14.084;2023-09-18T01:52:11;8.73;;;5.18;;
78783;SDS011;68127;51.050;14.084;2023-09-18T01:54:36;6.80;;;5.18;;
78783;SDS011;68127;51.050;14.084;2023-09-18T01:57:02;7.30;;;5.30;;
78783;SDS011;68127;51.050;14.084;2023-09-18T01:59:27;6.82;;;5.00;;
78783;SDS011;68127;51.050;14.084;2023-09-18T02:01:53;7.95;;;4.80;;
78783;SDS011;68127;51.050;14.084;2023-09-18T02:04:19;6.50;;;5.10;;
78783;SDS011;68127;51.050;14.084;2023-09-18T02:06:44;6.93;;;5.32;;
78783;SDS011;68127;51.050;14.084;2023-09-18T02:09:09;8.32;;;5.53;;
78783;SDS011;68127;51.050;14.084;2023-09-18T02:11:39;7.15;;;5.22;;
78783;SDS011;68127;51.050;14.084;2023-09-18T02:14:05;7.28;;;5.38;;
78783;SDS011;68127;51.050;14.084;2023-09-18T02:16:32;8.93;;;4.97;;
78783;SDS011;68127;51.050;14.084;2023-09-18T02:19:01;9.48;;;5.28;;
78783;SDS011;68127;51.050;14.084;2023-09-18T02:21:26;6.57;;;5.15;;
78783;SDS011;68127;51.050;14.084;2023-09-18T02:23:52;8.48;;;5.28;;
78783;SDS011;68127;51.050;14.084;2023-09-18T02:26:22;6.97;;;5.43;;
78783;SDS011;68127;51.050;14.084;2023-09-18T02:28:48;6.97;;;5.53;;
78783;SDS011;68127;51.050;14.084;2023-09-18T02:31:14;7.72;;;5.05;;
78783;SDS011;68127;51.050;14.084;2023-09-18T02:33:41;7.50;;;5.63;;
78783;SDS011;68127;51.050;14.084;2023-09-18T02:36:07;8.07;;;5.78;;
78783;SDS011;68127;51.050;14.084;2023-09-18T02:38:33;7.32;;;5.15;;
78783;SDS011;68127;51.050;14.084;2023-09-18T02:40:58;8.15;;;5.15;;
78783;SDS011;68127;51.050;14.084;2023-09-18T02:43:24;8.63;;;5.63;;
78783;SDS011;68127;51.050;14.084;2023-09-18T02:45:50;7.85;;;5.80;;
78783;SDS011;68127;51.050;14.084;2023-09-18T02:48:15;7.63;;;5.75;;
78783;SDS011;68127;51.050;14.084;2023-09-18T02:50:41;7.20;;;5.43;;
78783;SDS011;68127;51.050;14.084;2023-09-18T02:53:07;7.28;;;5.53;;
78783;SDS011;68127;51.050;14.084;2023-09-18T02:55:33;7.55;;;5.95;;
78783;SDS011;68127;51.050;14.084;2023-09-18T02:57:59;7.60;;;5.80;;
78783;SDS011;68127;51.050;14.084;2023-09-18T03:00:24;6.60;;;5.22;;
78783;SDS011;68127;51.050;14.084;2023-09-18T03:02:49;7.50;;;5.80;;
78783;SDS011;68127;51.050;14.084;2023-09-18T03:05:15;7.55;;;5.47;;
78783;SDS011;68127;51.050;14.084;2023-09-18T03:07:40;7.25;;;5.22;;
78783;SDS011;68127;51.050;14.084;2023-09-18T03:10:05;7.65;;;5.35;;
78783;SDS011;68127;51.050;14.084;2023-09-18T03:12:31;7.57;;;5.70;;
78783;SDS011;68127;51.050;14.084;2023-09-18T03:14:56;7.22;;;5.35;;
78783;SDS011;68127;51.050;14.084;2023-09-18T03:17:22;7.45;;;5.93;;
78783;SDS011;68127;51.050;14.084;2023-09-18T03:19:48;8.05;;;6.25;;
78783;SDS011;68127;51.050;14.084;2023-09-18T03:22:14;7.05;;;5.82;;
78783;SDS011;68127;51.050;14.084;2023-09-18T03:24:39;7.40;;;5.90;;
78783;SDS011;68127;51.050;14.084;2023-09-18T03:27:04;6.90;;;5.28;;
78783;SDS011;68127;51.050;14.084;2023-09-18T03:29:30;8.70;;;5.75;;
78783;SDS011;68127;51.050;14.084;2023-09-18T03:31:55;7.75;;;5.63;;
78783;SDS011;68127;51.050;14.084;2023-09-18T03:34:23;7.70;;;5.90;;
78783;SDS011;68127;51.050;14.084;2023-09-18T03:36:51;8.15;;;6.18;;
78783;SDS011;68127;51.050;14.084;2023-09-18T03:39:16;7.85;;;5.65;;
78783;SDS011;68127;51.050;14.084;2023-09-18T03:41:41;7.63;;;5.80;;
78783;SDS011;68127;51.050;14.084;2023-09-18T03:44:07;7.78;;;5.65;;
78783;SDS011;68127;51.050;14.084;2023-09-18T03:46:32;7.97;;;6.50;;
78783;SDS011;68127;51.050;14.084;2023-09-18T03:48:57;7.40;;;5.40;;
78783;SDS011;68127;51.050;14.084;2023-09-18T03:51:23;7.50;;;5.88;;
78783;SDS011;68127;51.050;14.084;2023-09-18T03:53:48;7.32;;;6.03;;
78783;SDS011;68127;51.050;14.084;2023-09-18T03:56:13;8.68;;;5.72;;
78783;SDS011;68127;51.050;14.084;2023-09-18T03:58:39;21.17;;;6.22;;
78783;SDS011;68127;51.050;14.084;2023-09-18T04:01:04;10.25;;;6.10;;
78783;SDS011;68127;51.050;14.084;2023-09-18T04:03:29;6.90;;;5.35;;
78783;SDS011;68127;51.050;14.084;2023-09-18T04:05:55;7.93;;;5.85;;
78783;SDS011;68127;51.050;14.084;2023-09-18T04:08:20;7.28;;;5.78;;
78783;SDS011;68127;51.050;14.084;2023-09-18T04:10:45;9.45;;;5.97;;
78783;SDS011;68127;51.050;14.084;2023-09-18T04:13:11;8.40;;;6.15;;
78783;SDS011;68127;51.050;14.084;2023-09-18T04:15:36;7.65;;;5.97;;
78783;SDS011;68127;51.050;14.084;2023-09-18T04:18:04;8.55;;;6.38;;
78783;SDS011;68127;51.050;14.084;2023-09-18T04:20:30;7.63;;;5.75;;
78783;SDS011;68127;51.050;14.084;2023-09-18T04:25:43;8.30;;;6.25;;
78783;SDS011;68127;51.050;14.084;2023-09-18T04:28:08;7.53;;;5.97;;
78783;SDS011;68127;51.050;14.084;2023-09-18T04:30:33;8.20;;;6.13;;
78783;SDS011;68127;51.050;14.084;2023-09-18T04:32:58;9.25;;;6.10;;
78783;SDS011;68127;51.050;14.084;2023-09-18T04:35:24;7.85;;;6.13;;
78783;SDS011;68127;51.050;14.084;2023-09-18T04:37:50;7.78;;;6.10;;
78783;SDS011;68127;51.050;14.084;2023-09-18T04:40:15;9.15;;;6.00;;
78783;SDS011;68127;51.050;14.084;2023-09-18T04:42:40;7.85;;;6.38;;
78783;SDS011;68127;51.050;14.084;2023-09-18T04:45:06;7.70;;;5.88;;
78783;SDS011;68127;51.050;14.084;2023-09-18T04:47:31;7.82;;;6.20;;
78783;SDS011;68127;51.050;14.084;2023-09-18T04:49:57;9.02;;;6.38;;
78783;SDS011;68127;51.050;14.084;2023-09-18T04:52:22;8.60;;;6.57;;
78783;SDS011;68127;51.050;14.084;2023-09-18T04:54:47;8.05;;;5.97;;
78783;SDS011;68127;51.050;14.084;2023-09-18T04:57:13;7.63;;;6.18;;
78783;SDS011;68127;51.050;14.084;2023-09-18T04:59:38;7.60;;;6.15;;
78783;SDS011;68127;51.050;14.084;2023-09-18T05:02:03;9.27;;;6.38;;
78783;SDS011;68127;51.050;14.084;2023-09-18T05:04:29;9.10;;;6.90;;
78783;SDS011;68127;51.050;14.084;2023-09-18T05:06:54;8.68;;;6.65;;
78783;SDS011;68127;51.050;14.084;2023-09-18T05:09:21;10.10;;;6.32;;
78783;SDS011;68127;51.050;14.084;2023-09-18T05:11:46;8.18;;;6.57;;
78783;SDS011;68127;51.050;14.084;2023-09-18T05:14:13;7.93;;;6.53;;
78783;SDS011;68127;51.050;14.084;2023-09-18T05:16:41;8.75;;;6.97;;
78783;SDS011;68127;51.050;14.084;2023-09-18T05:19:06;9.35;;;6.43;;
78783;SDS011;68127;51.050;14.084;2023-09-18T05:21:31;12.30;;;6.78;;
78783;SDS011;68127;51.050;14.084;2023-09-18T05:23:56;12.82;;;7.05;;
78783;SDS011;68127;51.050;14.084;2023-09-18T05:26:22;14.18;;;7.10;;
78783;SDS011;68127;51.050;14.084;2023-09-18T05:28:49;10.23;;;6.53;;
78783;SDS011;68127;51.050;14.084;2023-09-18T05:31:15;11.23;;;6.63;;
78783;SDS011;68127;51.050;14.084;2023-09-18T05:33:42;10.15;;;7.53;;
78783;SDS011;68127;51.050;14.084;2023-09-18T05:36:07;11.88;;;7.85;;
78783;SDS011;68127;51.050;14.084;2023-09-18T05:38:33;9.90;;;7.22;;
78783;SDS011;68127;51.050;14.084;2023-09-18T05:40:58;10.05;;;7.50;;
78783;SDS011;68127;51.050;14.084;2023-09-18T05:43:23;7.88;;;6.65;;
78783;SDS011;68127;51.050;14.084;2023-09-18T05:45:48;9.93;;;6.38;;
78783;SDS011;68127;51.050;14.084;2023-09-18T05:48:14;9.05;;;6.63;;
78783;SDS011;68127;51.050;14.084;2023-09-18T05:50:40;9.43;;;7.25;;
78783;SDS011;68127;51.050;14.084;2023-09-18T05:53:06;12.43;;;7.25;;
78783;SDS011;68127;51.050;14.084;2023-09-18T05:55:34;9.60;;;6.85;;
78783;SDS011;68127;51.050;14.084;2023-09-18T05:58:00;8.25;;;6.43;;
78783;SDS011;68127;51.050;14.084;2023-09-18T06:00:26;8.80;;;6.90;;
78783;SDS011;68127;51.050;14.084;2023-09-18T06:02:51;8.68;;;7.28;;
78783;SDS011;68127;51.050;14.084;2023-09-18T06:05:17;8.30;;;6.47;;
78783;SDS011;68127;51.050;14.084;2023-09-18T06:07:46;8.75;;;6.65;;
78783;SDS011;68127;51.050;14.084;2023-09-18T06:10:11;7.90;;;6.28;;
78783;SDS011;68127;51.050;14.084;2023-09-18T06:12:39;9.07;;;6.90;;
78783;SDS011;68127;51.050;14.084;2023-09-18T06:15:06;10.50;;;7.28;;
78783;SDS011;68127;51.050;14.084;2023-09-18T06:17:34;7.80;;;6.68;;
78783;SDS011;68127;51.050;14.084;2023-09-18T06:20:00;8.82;;;7.35;;
78783;SDS011;68127;51.050;14.084;2023-09-18T06:22:26;11.55;;;6.97;;
78783;SDS011;68127;51.050;14.084;2023-09-18T06:24:51;8.98;;;7.10;;
78783;SDS011;68127;51.050;14.084;2023-09-18T06:27:16;10.07;;;7.47;;
78783;SDS011;68127;51.050;14.084;2023-09-18T06:29:43;10.07;;;7.00;;
78783;SDS011;68127;51.050;14.084;2023-09-18T06:32:09;9.43;;;7.43;;
78783;SDS011;68127;51.050;14.084;2023-09-18T06:34:34;9.55;;;7.28;;
78783;SDS011;68127;51.050;14.084;2023-09-18T06:36:59;9.50;;;7.20;;
78783;SDS011;68127;51.050;14.084;2023-09-18T06:39:24;9.00;;;7.43;;
78783;SDS011;68127;51.050;14.084;2023-09-18T06:41:51;9.73;;;7.60;;
78783;SDS011;68127;51.050;14.084;2023-09-18T06:44:16;10.32;;;7.22;;
78783;SDS011;68127;51.050;14.084;2023-09-18T06:46:41;10.38;;;6.90;;
78783;SDS011;68127;51.050;14.084;2023-09-18T06:49:07;8.82;;;6.90;;
78783;SDS011;68127;51.050;14.084;2023-09-18T06:51:32;13.15;;;7.53;;
78783;SDS011;68127;51.050;14.084;2023-09-18T06:53:57;10.13;;;6.63;;
78783;SDS011;68127;51.050;14.084;2023-09-18T06:56:23;9.30;;;6.57;;
78783;SDS011;68127;51.050;14.084;2023-09-18T06:58:49;9.82;;;7.32;;
78783;SDS011;68127;51.050;14.084;2023-09-18T07:01:16;10.45;;;7.45;;
78783;SDS011;68127;51.050;14.084;2023-09-18T07:03:45;10.75;;;7.57;;
78783;SDS011;68127;51.050;14.084;2023-09-18T07:06:12;8.13;;;6.63;;
78783;SDS011;68127;51.050;14.084;2023-09-18T07:08:38;9.35;;;6.97;;
78783;SDS011;68127;51.050;14.084;2023-09-18T07:11:03;9.68;;;7.30;;
78783;SDS011;68127;51.050;14.084;2023-09-18T07:13:28;10.30;;;7.32;;
78783;SDS011;68127;51.050;14.084;2023-09-18T07:15:54;9.48;;;6.78;;
78783;SDS011;68127;51.050;14.084;2023-09-18T07:18:19;9.63;;;6.88;;
78783;SDS011;68127;51.050;14.084;2023-09-18T07:20:44;10.20;;;6.88;;
78783;SDS011;68127;51.050;14.084;2023-09-18T07:23:10;12.32;;;7.13;;
78783;SDS011;68127;51.050;14.084;2023-09-18T07:25:35;9.18;;;6.75;;
78783;SDS011;68127;51.050;14.084;2023-09-18T07:28:03;9.18;;;7.00;;
78783;SDS011;68127;51.050;14.084;2023-09-18T07:30:31;8.43;;;6.90;;
78783;SDS011;68127;51.050;14.084;2023-09-18T07:32:57;9.93;;;6.35;;
78783;SDS011;68127;51.050;14.084;2023-09-18T07:35:22;11.45;;;7.25;;
78783;SDS011;68127;51.050;14.084;2023-09-18T07:37:48;9.50;;;7.57;;
78783;SDS011;68127;51.050;14.084;2023-09-18T07:40:14;7.88;;;6.72;;
78783;SDS011;68127;51.050;14.084;2023-09-18T07:42:40;12.70;;;6.90;;
78783;SDS011;68127;51.050;14.084;2023-09-18T07:45:06;11.68;;;7.00;;
78783;SDS011;68127;51.050;14.084;2023-09-18T07:47:32;8.30;;;7.13;;
78783;SDS011;68127;51.050;14.084;2023-09-18T07:49:57;8.77;;;6.95;;
78783;SDS011;68127;51.050;14.084;2023-09-18T07:52:22;9.65;;;6.88;;
78783;SDS011;68127;51.050;14.084;2023-09-18T07:54:47;8.90;;;7.00;;
78783;SDS011;68127;51.050;14.084;2023-09-18T07:57:13;12.93;;;7.40;;
78783;SDS011;68127;51.050;14.084;2023-09-18T07:59:38;9.20;;;7.07;;
78783;SDS011;68127;51.050;14.084;2023-09-18T08:02:04;9.05;;;6.95;;
78783;SDS011;68127;51.050;14.084;2023-09-18T08:04:31;8.40;;;6.78;;
78783;SDS011;68127;51.050;14.084;2023-09-18T08:06:56;9.82;;;6.55;;
78783;SDS011;68127;51.050;14.084;2023-09-18T08:09:22;11.23;;;7.80;;
78783;SDS011;68127;51.050;14.084;2023-09-18T08:11:48;14.27;;;6.90;;
78783;SDS011;68127;51.050;14.084;2023-09-18T08:14:15;10.57;;;7.45;;
78783;SDS011;68127;51.050;14.084;2023-09-18T08:16:40;11.30;;;6.57;;
78783;SDS011;68127;51.050;14.084;2023-09-18T08:19:06;8.75;;;6.60;;
78783;SDS011;68127;51.050;14.084;2023-09-18T08:21:32;7.75;;;6.32;;
78783;SDS011;68127;51.050;14.084;2023-09-18T08:23:57;8.05;;;6.07;;
78783;SDS011;68127;51.050;14.084;2023-09-18T08:26:22;11.00;;;6.93;;
78783;SDS011;68127;51.050;14.084;2023-09-18T08:28:48;9.63;;;7.50;;
78783;SDS011;68127;51.050;14.084;2023-09-18T08:31:13;8.23;;;6.60;;
78783;SDS011;68127;51.050;14.084;2023-09-18T08:33:41;9.05;;;6.50;;
78783;SDS011;68127;51.050;14.084;2023-09-18T08:36:06;10.10;;;6.05;;
78783;SDS011;68127;51.050;14.084;2023-09-18T08:38:31;8.50;;;6.63;;
78783;SDS011;68127;51.050;14.084;2023-09-18T08:40:57;7.15;;;5.80;;
78783;SDS011;68127;51.050;14.084;2023-09-18T08:43:22;9.60;;;7.13;;
78783;SDS011;68127;51.050;14.084;2023-09-18T08:45:52;8.98;;;5.70;;
78783;SDS011;68127;51.050;14.084;2023-09-18T08:48:18;10.57;;;6.63;;
78783;SDS011;68127;51.050;14.084;2023-09-18T08:50:45;7.57;;;5.85;;
78783;SDS011;68127;51.050;14.084;2023-09-18T08:53:11;7.03;;;5.53;;
78783;SDS011;68127;51.050;14.084;2023-09-18T08:55:36;9.60;;;6.28;;
78783;SDS011;68127;51.050;14.084;2023-09-18T08:58:01;10.60;;;6.20;;
78783;SDS011;68127;51.050;14.084;2023-09-18T09:00:27;8.18;;;5.80;;
78783;SDS011;68127;51.050;14.084;2023-09-18T09:02:52;9.88;;;6.63;;
78783;SDS011;68127;51.050;14.084;2023-09-18T09:05:24;7.90;;;5.76;;
78783;SDS011;68127;51.050;14.084;2023-09-18T09:07:50;7.50;;;6.40;;
78783;SDS011;68127;51.050;14.084;2023-09-18T09:10:15;9.48;;;6.20;;
78783;SDS011;68127;51.050;14.084;2023-09-18T09:13:00;8.95;;;6.90;;
78783;SDS011;68127;51.050;14.084;2023-09-18T09:15:27;10.52;;;6.00;;
78783;SDS011;68127;51.050;14.084;2023-09-18T09:18:06;7.95;;;5.50;;
78783;SDS011;68127;51.050;14.084;2023-09-18T09:20:33;7.57;;;5.70;;
78783;SDS011;68127;51.050;14.084;2023-09-18T09:23:01;8.20;;;5.70;;
78783;SDS011;68127;51.050;14.084;2023-09-18T09:25:28;11.35;;;6.15;;
78783;SDS011;68127;51.050;14.084;2023-09-18T09:27:56;8.02;;;5.72;;
78783;SDS011;68127;51.050;14.084;2023-09-18T09:30:23;8.88;;;5.57;;
78783;SDS011;68127;51.050;14.084;2023-09-18T09:32:50;10.23;;;5.50;;
78783;SDS011;68127;51.050;14.084;2023-09-18T09:35:27;6.43;;;5.30;;
78783;SDS011;68127;51.050;14.084;2023-09-18T09:37:56;8.43;;;5.78;;
78783;SDS011;68127;51.050;14.084;2023-09-18T09:40:24;7.75;;;5.68;;
78783;SDS011;68127;51.050;14.084;2023-09-18T09:42:53;7.47;;;5.20;;
78783;SDS011;68127;51.050;14.084;2023-09-18T09:45:25;6.55;;;5.30;;
78783;SDS011;68127;51.050;14.084;2023-09-18T09:47:55;8.90;;;5.32;;
78783;SDS011;68127;51.050;14.084;2023-09-18T09:50:21;8.48;;;5.45;;
78783;SDS011;68127;51.050;14.084;2023-09-18T09:52:48;14.15;;;5.90;;
78783;SDS011;68127;51.050;14.084;2023-09-18T09:55:23;11.32;;;5.30;;
78783;SDS011;68127;51.050;14.084;2023-09-18T09:57:54;7.68;;;5.90;;
78783;SDS011;68127;51.050;14.084;2023-09-18T10:00:23;9.00;;;5.07;;
78783;SDS011;68127;51.050;14.084;2023-09-18T10:03:01;9.27;;;5.82;;
78783;SDS011;68127;51.050;14.084;2023-09-18T10:05:33;6.47;;;5.13;;
78783;SDS011;68127;51.050;14.084;2023-09-18T10:08:02;6.80;;;5.50;;
78783;SDS011;68127;51.050;14.084;2023-09-18T10:10:30;9.13;;;5.75;;
78783;SDS011;68127;51.050;14.084;2023-09-18T10:13:00;7.93;;;5.45;;
78783;SDS011;68127;51.050;14.084;2023-09-18T10:15:29;7.70;;;5.03;;
78783;SDS011;68127;51.050;14.084;2023-09-18T10:17:58;8.18;;;4.97;;
78783;SDS011;68127;51.050;14.084;2023-09-18T10:20:24;8.55;;;5.30;;
78783;SDS011;68127;51.050;14.084;2023-09-18T10:22:52;7.07;;;5.53;;
78783;SDS011;68127;51.050;14.084;2023-09-18T10:25:28;6.90;;;5.03;;
78783;SDS011;68127;51.050;14.084;2023-09-18T10:27:54;6.32;;;5.40;;
78783;SDS011;68127;51.050;14.084;2023-09-18T10:30:23;6.70;;;4.95;;
78783;SDS011;68127;51.050;14.084;2023-09-18T10:32:50;7.60;;;5.50;;
78783;SDS011;68127;51.050;14.084;2023-09-18T10:35:16;8.63;;;5.35;;
78783;SDS011;68127;51.050;14.084;2023-09-18T10:37:42;9.27;;;5.22;;
78783;SDS011;68127;51.050;14.084;2023-09-18T10:40:11;7.43;;;5.30;;
78783;SDS011;68127;51.050;14.084;2023-09-18T10:42:40;6.63;;;4.85;;
78783;SDS011;68127;51.050;14.084;2023-09-18T10:45:10;7.90;;;4.90;;
78783;SDS011;68127;51.050;14.084;2023-09-18T10:47:37;5.93;;;4.70;;
78783;SDS011;68127;51.050;14.084;2023-09-18T10:50:04;6.85;;;5.00;;
78783;SDS011;68127;51.050;14.084;2023-09-18T10:52:32;6.93;;;4.95;;
78783;SDS011;68127;51.050;14.084;2023-09-18T10:54:57;6.82;;;4.95;;
78783;SDS011;68127;51.050;14.084;2023-09-18T10:57:22;7.63;;;5.30;;
78783;SDS011;68127;51.050;14.084;2023-09-18T10:59:48;6.68;;;5.35;;
78783;SDS011;68127;51.050;14.084;2023-09-18T11:02:14;7.55;;;5.07;;
78783;SDS011;68127;51.050;14.084;2023-09-18T11:04:41;8.45;;;4.90;;
78783;SDS011;68127;51.050;14.084;2023-09-18T11:07:07;6.57;;;4.78;;
78783;SDS011;68127;51.050;14.084;2023-09-18T11:09:43;7.95;;;5.00;;
78783;SDS011;68127;51.050;14.084;2023-09-18T11:12:10;7.80;;;4.63;;
78783;SDS011;68127;51.050;14.084;2023-09-18T11:14:43;6.40;;;4.88;;
78783;SDS011;68127;51.050;14.084;2023-09-18T11:17:55;8.00;;;4.90;;
78783;SDS011;68127;51.050;14.084;2023-09-18T11:22:49;7.53;;;5.13;;
78783;SDS011;68127;51.050;14.084;2023-09-18T11:27:59;7.90;;;4.55;;
78783;SDS011;68127;51.050;14.084;2023-09-18T11:30:25;9.07;;;4.70;;
78783;SDS011;68127;51.050;14.084;2023-09-18T11:32:50;5.93;;;4.40;;
78783;SDS011;68127;51.050;14.084;2023-09-18T11:35:17;7.25;;;4.82;;
78783;SDS011;68127;51.050;14.084;2023-09-18T11:37:43;6.70;;;5.00;;
78783;SDS011;68127;51.050;14.084;2023-09-18T11:45:51;5.95;;;4.40;;
78783;SDS011;68127;51.050;14.084;2023-09-18T11:48:18;7.03;;;4.82;;
78783;SDS011;68127;51.050;14.084;2023-09-18T11:50:44;7.80;;;4.97;;
78783;SDS011;68127;51.050;14.084;2023-09-18T11:53:10;6.47;;;5.18;;
78783;SDS011;68127;51.050;14.084;2023-09-18T11:55:37;8.70;;;5.18;;
78783;SDS011;68127;51.050;14.084;2023-09-18T11:58:04;6.05;;;5.15;;
78783;SDS011;68127;51.050;14.084;2023-09-18T12:00:30;9.77;;;5.10;;
78783;SDS011;68127;51.050;14.084;2023-09-18T12:02:56;6.45;;;4.85;;
78783;SDS011;68127;51.050;14.084;2023-09-18T12:05:23;8.63;;;5.13;;
78783;SDS011;68127;51.050;14.084;2023-09-18T12:07:51;9.88;;;5.88;;
78783;SDS011;68127;51.050;14.084;2023-09-18T12:10:16;7.22;;;5.03;;
78783;SDS011;68127;51.050;14.084;2023-09-18T12:12:43;8.15;;;5.30;;
78783;SDS011;68127;51.050;14.084;2023-09-18T12:15:12;9.95;;;5.72;;
78783;SDS011;68127;51.050;14.084;2023-09-18T12:17:38;6.85;;;5.18;;
78783;SDS011;68127;51.050;14.084;2023-09-18T12:20:04;6.88;;;5.05;;
78783;SDS011;68127;51.050;14.084;2023-09-18T12:22:30;6.97;;;5.13;;
78783;SDS011;68127;51.050;14.084;2023-09-18T12:25:12;8.15;;;5.35;;
78783;SDS011;68127;51.050;14.084;2023-09-18T12:27:39;6.73;;;5.40;;
78783;SDS011;68127;51.050;14.084;2023-09-18T12:30:05;9.40;;;5.55;;
78783;SDS011;68127;51.050;14.084;2023-09-18T12:32:30;6.00;;;4.97;;
78783;SDS011;68127;51.050;14.084;2023-09-18T12:34:57;7.00;;;5.60;;
78783;SDS011;68127;51.050;14.084;2023-09-18T12:37:23;6.47;;;4.95;;
78783;SDS011;68127;51.050;14.084;2023-09-18T12:39:48;7.13;;;5.47;;
78783;SDS011;68127;51.050;14.084;2023-09-18T12:42:16;7.18;;;5.63;;
78783;SDS011;68127;51.050;14.084;2023-09-18T12:44:43;6.40;;;5.07;;
78783;SDS011;68127;51.050;14.084;2023-09-18T12:47:08;6.53;;;5.38;;
78783;SDS011;68127;51.050;14.084;2023-09-18T12:49:33;7.05;;;5.13;;
78783;SDS011;68127;51.050;14.084;2023-09-18T12:52:00;9.95;;;5.38;;
78783;SDS011;68127;51.050;14.084;2023-09-18T12:54:39;9.35;;;5.60;;
78783;SDS011;68127;51.050;14.084;2023-09-18T12:57:10;10.05;;;5.93;;
78783;SDS011;68127;51.050;14.084;2023-09-18T12:59:37;7.00;;;5.43;;
78783;SDS011;68127;51.050;14.084;2023-09-18T13:02:06;8.15;;;5.43;;
78783;SDS011;68127;51.050;14.084;2023-09-18T13:04:32;6.57;;;5.20;;
78783;SDS011;68127;51.050;14.084;2023-09-18T13:07:06;9.93;;;5.68;;
78783;SDS011;68127;51.050;14.084;2023-09-18T13:09:32;8.88;;;5.43;;
78783;SDS011;68127;51.050;14.084;2023-09-18T13:11:58;7.85;;;5.38;;
78783;SDS011;68127;51.050;14.084;2023-09-18T13:14:26;9.30;;;5.85;;
78783;SDS011;68127;51.050;14.084;2023-09-18T13:16:52;7.03;;;5.40;;
78783;SDS011;68127;51.050;14.084;2023-09-18T13:19:17;7.95;;;5.07;;
78783;SDS011;68127;51.050;14.084;2023-09-18T13:21:46;7.35;;;5.43;;
78783;SDS011;68127;51.050;14.084;2023-09-18T13:24:28;8.90;;;5.53;;
78783;SDS011;68127;51.050;14.084;2023-09-18T13:26:54;7.85;;;5.55;;
78783;SDS011;68127;51.050;14.084;2023-09-18T13:29:20;8.85;;;5.88;;
78783;SDS011;68127;51.050;14.084;2023-09-18T13:31:46;7.65;;;5.30;;
78783;SDS011;68127;51.050;14.084;2023-09-18T13:34:11;7.78;;;5.40;;
78783;SDS011;68127;51.050;14.084;2023-09-18T13:36:37;7.60;;;5.40;;
78783;SDS011;68127;51.050;14.084;2023-09-18T13:39:02;7.97;;;5.80;;
78783;SDS011;68127;51.050;14.084;2023-09-18T13:41:28;9.80;;;5.70;;
78783;SDS011;68127;51.050;14.084;2023-09-18T13:43:53;8.68;;;5.68;;
78783;SDS011;68127;51.050;14.084;2023-09-18T13:46:20;7.65;;;5.10;;
78783;SDS011;68127;51.050;14.084;2023-09-18T13:48:46;7.25;;;5.55;;
78783;SDS011;68127;51.050;14.084;2023-09-18T13:51:12;9.40;;;5.88;;
78783;SDS011;68127;51.050;14.084;2023-09-18T13:53:38;9.05;;;4.97;;
78783;SDS011;68127;51.050;14.084;2023-09-18T13:56:04;8.73;;;4.95;;
78783;SDS011;68127;51.050;14.084;2023-09-18T13:58:30;8.82;;;5.20;;
78783;SDS011;68127;51.050;14.084;2023-09-18T14:00:55;8.75;;;5.00;;
78783;SDS011;68127;51.050;14.084;2023-09-18T14:03:22;11.77;;;5.45;;
78783;SDS011;68127;51.050;14.084;2023-09-18T14:05:48;6.47;;;4.75;;
78783;SDS011;68127;51.050;14.084;2023-09-18T14:08:14;6.82;;;4.90;;
78783;SDS011;68127;51.050;14.084;2023-09-18T14:10:39;6.68;;;4.97;;
78783;SDS011;68127;51.050;14.084;2023-09-18T14:13:04;12.13;;;5.15;;
78783;SDS011;68127;51.050;14.084;2023-09-18T14:15:30;8.00;;;4.90;;
78783;SDS011;68127;51.050;14.084;2023-09-18T14:17:55;9.27;;;5.22;;
78783;SDS011;68127;51.050;14.084;2023-09-18T14:20:21;6.93;;;4.82;;
78783;SDS011;68127;51.050;14.084;2023-09-18T14:22:46;7.00;;;4.95;;
78783;SDS011;68127;51.050;14.084;2023-09-18T14:25:18;8.73;;;4.68;;
78783;SDS011;68127;51.050;14.084;2023-09-18T14:27:45;6.93;;;4.85;;
78783;SDS011;68127;51.050;14.084;2023-09-18T14:30:10;6.07;;;4.75;;
78783;SDS011;68127;51.050;14.084;2023-09-18T14:32:38;7.53;;;4.93;;
78783;SDS011;68127;51.050;14.084;2023-09-18T14:35:04;7.65;;;5.20;;
78783;SDS011;68127;51.050;14.084;2023-09-18T14:37:33;10.95;;;5.43;;
78783;SDS011;68127;51.050;14.084;2023-09-18T14:39:58;9.15;;;5.00;;
78783;SDS011;68127;51.050;14.084;2023-09-18T14:42:24;8.88;;;5.10;;